Austin Reinauer — WCX8055 — position and weather

sailwx.info

Track history (hours):
 
Tides and Currents Weather Stations Pressure Air Temp Water Temp Dewpoint Dewpoint Depression Visibility Wind Speed Wind Dir Waves Ship Positions

Austin Reinauer

Owner: REINAUER TRANSPORTATION CO. LLC, STATEN ISLAND, NY. More information available from US FCC via Universal Licensing System and Coast Guard Vessel Documentation Center.

Last reported at 2018-Jul-19 13:00 UTC. Time now 2018-Jul-19 13:21 UTC.
Position N 40°44' W 073°58'.

Length 33 m; draft 6 m.

Type: . MMSI: 366739920.

Date/timePositionNaut miles runAvg speedWind from/ knotsBaromVisibWave heightAir tempDewpointWater temp
2018-Jul-19 13:00N 40°44' W 073°58'3 5.6
2018-Jul-19 12:30N 40°42' W 074°00'2 4.2
2018-Jul-19 12:00N 40°40' W 074°02'2 4.8
2018-Jul-19 11:30N 40°39' W 074°05'2 4.7
2018-Jul-19 11:00N 40°38' W 074°08'0 0.0
2018-Jul-19 10:30N 40°38' W 074°08'2 3.8
2018-Jul-19 10:00N 40°39' W 074°05'3 5.7
2018-Jul-19 09:30N 40°40' W 074°02'2 3.6
2018-Jul-19 09:00N 40°39' W 074°03'4 7.7
2018-Jul-19 08:30N 40°35' W 074°02'4 7.6
2018-Jul-19 08:00N 40°31' W 074°00'34 8.1
2018-Jul-19 03:48N 39°58' W 073°56'3 9.3
2018-Jul-19 03:29N 39°55' W 073°56'5 9.5
2018-Jul-19 03:00N 39°50' W 073°57'5 9.5
2018-Jul-19 02:30N 39°46' W 073°58'5 9.3
2018-Jul-19 02:00N 39°41' W 074°01'5 9.2
2018-Jul-19 01:30N 39°37' W 074°03'66 8.3
2018-Jul-18 17:36N 38°48' W 075°00'2 6.7
2018-Jul-18 17:20N 38°49' W 075°02'4 7.8
2018-Jul-18 16:51N 38°53' W 075°04'3 7.2
2018-Jul-18 16:27N 38°55' W 075°05'3 6.8
2018-Jul-18 15:59N 38°58' W 075°07'3 7.1
2018-Jul-18 15:30N 39°01' W 075°09'4 7.5
2018-Jul-18 15:00N 39°05' W 075°11'4 8.0
2018-Jul-18 14:31N 39°08' W 075°14'9 9.3
2018-Jul-18 13:30N 39°16' W 075°20'611.1
2018-Jul-18 13:00N 39°20' W 075°25'611.1
2018-Jul-18 12:31N 39°24' W 075°30'510.6
2018-Jul-18 12:00N 39°28' W 075°34'510.5
2018-Jul-18 11:30N 39°33' W 075°33'8 8.4
2018-Jul-18 10:30N 39°42' W 075°31'4 8.6
2018-Jul-18 10:00N 39°46' W 075°29'4 7.6
2018-Jul-18 09:30N 39°48' W 075°25'4 7.1
2018-Jul-18 09:00N 39°50' W 075°21'3 6.4
2018-Jul-18 08:31N 39°51' W 075°17'3 6.5
2018-Jul-18 08:00N 39°52' W 075°13'3 6.0
2018-Jul-18 07:30N 39°53' W 075°10'0 0.0
2018-Jul-18 06:59N 39°53' W 075°10'0 0.0
2018-Jul-18 06:29N 39°53' W 075°10'0 0.0
2018-Jul-18 05:59N 39°53' W 075°10'0 0.0
2018-Jul-18 05:29N 39°53' W 075°10'0 0.0
2018-Jul-18 05:00N 39°53' W 075°10'0 0.0
2018-Jul-18 04:31N 39°53' W 075°10'0 0.0
2018-Jul-18 04:00N 39°53' W 075°10'0 0.0
2018-Jul-18 03:30N 39°53' W 075°10'0 0.0
2018-Jul-18 03:00N 39°53' W 075°10'0 0.0
2018-Jul-18 02:31N 39°53' W 075°10'0 0.0
2018-Jul-18 02:00N 39°53' W 075°10'0 0.0
2018-Jul-18 01:30N 39°53' W 075°10'0 0.0
2018-Jul-18 01:00N 39°53' W 075°10'0 0.0
2018-Jul-18 00:31N 39°53' W 075°10'0 0.0
2018-Jul-18 00:00N 39°53' W 075°10'0 0.0
2018-Jul-17 23:30N 39°53' W 075°10'0 0.0
2018-Jul-17 23:00N 39°53' W 075°10'0 0.0
2018-Jul-17 22:30N 39°53' W 075°10'0 0.0
2018-Jul-17 22:00N 39°53' W 075°10'0 0.0
2018-Jul-17 21:30N 39°53' W 075°10'0 0.0
2018-Jul-17 21:00N 39°53' W 075°10'0 0.0
2018-Jul-17 20:30N 39°53' W 075°10'0 0.0
2018-Jul-17 20:00N 39°53' W 075°10'0 0.0
2018-Jul-17 19:30N 39°53' W 075°10'0 0.0
2018-Jul-17 19:00N 39°53' W 075°10'0 0.0
2018-Jul-17 18:30N 39°53' W 075°10'0 0.0
2018-Jul-17 18:00N 39°53' W 075°10'0 0.0
2018-Jul-17 17:30N 39°53' W 075°10'0 0.0
2018-Jul-17 17:00N 39°53' W 075°10'0 0.0
2018-Jul-17 16:30N 39°53' W 075°10'0 0.0
2018-Jul-17 16:00N 39°53' W 075°10'0 0.0
2018-Jul-17 15:30N 39°53' W 075°10'0 0.0
2018-Jul-17 15:00N 39°53' W 075°10'0 0.0
2018-Jul-17 14:30N 39°53' W 075°10'0 0.0
2018-Jul-17 14:00N 39°53' W 075°10'0 0.0
2018-Jul-17 13:29N 39°53' W 075°10'0 0.0
2018-Jul-17 13:00N 39°53' W 075°10'0 0.0
2018-Jul-17 12:30N 39°53' W 075°10'0 0.0
2018-Jul-17 12:00N 39°53' W 075°10'0 0.0
2018-Jul-17 11:30N 39°53' W 075°10'0 0.0
2018-Jul-17 11:00N 39°53' W 075°10'0 0.0
2018-Jul-17 10:30N 39°53' W 075°10'0 0.0
2018-Jul-17 10:00N 39°53' W 075°10'0 0.0
2018-Jul-17 09:30N 39°53' W 075°10'0 0.0
2018-Jul-17 09:00N 39°53' W 075°10'0 0.0
2018-Jul-17 08:30N 39°53' W 075°10'0 0.0
2018-Jul-17 08:00N 39°53' W 075°10'0 0.0
2018-Jul-17 07:30N 39°53' W 075°10'0 0.8
2018-Jul-17 07:00N 39°53' W 075°10'2 4.0
2018-Jul-17 06:30N 39°52' W 075°12'0 0.0
2018-Jul-17 06:00N 39°52' W 075°12'0 0.0
2018-Jul-17 05:30N 39°52' W 075°12'1 1.3
2018-Jul-17 05:00N 39°53' W 075°12'0 0.8
2018-Jul-17 04:30N 39°53' W 075°11'5 9.2
2018-Jul-17 04:00N 39°51' W 075°17'4 8.2
2018-Jul-17 03:30N 39°50' W 075°22'4 8.7
2018-Jul-17 03:00N 39°47' W 075°27'4 8.6
2018-Jul-17 02:30N 39°44' W 075°30'4 8.3
2018-Jul-17 02:00N 39°40' W 075°32'4 7.9
2018-Jul-17 01:30N 39°37' W 075°35'4 8.2
2018-Jul-17 01:00N 39°33' W 075°32'4 7.8
2018-Jul-17 00:30N 39°29' W 075°34'7 7.3
2018-Jul-16 23:30N 39°23' W 075°29'4 7.6
2018-Jul-16 23:00N 39°20' W 075°25'4 7.8
2018-Jul-16 22:30N 39°17' W 075°22'4 8.1
2018-Jul-16 22:00N 39°14' W 075°19'4 8.0
2018-Jul-16 21:30N 39°11' W 075°16'4 8.5
2018-Jul-16 21:00N 39°07' W 075°13'25 5.8
2018-Jul-16 16:38N 38°58' W 074°43'3 9.9
2018-Jul-16 16:17N 39°00' W 074°40'4 9.8
2018-Jul-16 15:50N 39°03' W 074°36'11 9.8
2018-Jul-16 14:45N 39°11' W 074°26'7 9.8
2018-Jul-16 14:05N 39°16' W 074°21'1 9.8
2018-Jul-16 13:58N 39°17' W 074°20'5 9.8
2018-Jul-16 13:30N 39°20' W 074°16'5 9.6
2018-Jul-16 13:00N 39°24' W 074°12'5 9.7
2018-Jul-16 12:30N 39°28' W 074°09'5 9.7
2018-Jul-16 12:00N 39°33' W 074°06'5 9.8
2018-Jul-16 11:30N 39°37' W 074°03'5 9.8
2018-Jul-16 11:00N 39°41' W 074°01'5 9.6
2018-Jul-16 10:31N 39°46' W 073°58'5 9.3
2018-Jul-16 10:00N 39°50' W 073°57'5 9.8
2018-Jul-16 09:30N 39°55' W 073°57'6 9.7
2018-Jul-16 08:55N 40°01' W 073°56'5 9.8
2018-Jul-16 08:25N 40°06' W 073°55'5 9.9
2018-Jul-16 07:57N 40°10' W 073°55'1910.1
2018-Jul-16 06:06N 40°29' W 073°54'212.2
2018-Jul-16 05:56N 40°30' W 073°57'511.4
2018-Jul-16 05:30N 40°33' W 074°02'510.7
2018-Jul-16 05:00N 40°38' W 074°03'5 9.1
2018-Jul-16 04:30N 40°42' W 074°00'4 7.7
2018-Jul-16 04:00N 40°45' W 073°57'57 1.3
2018-Jul-14 09:07N 41°16' W 072°55'1 7.5
2018-Jul-14 08:59N 41°15' W 072°55'6 7.0
2018-Jul-14 08:10N 41°10' W 072°58'2 9.5
2018-Jul-14 07:56N 41°09' W 073°00'4 9.7
2018-Jul-14 07:30N 41°06' W 073°04'5 9.9
2018-Jul-14 07:00N 41°04' W 073°10'5 9.7
2018-Jul-14 06:30N 41°02' W 073°16'13 9.3
2018-Jul-14 05:09N 40°57' W 073°32'3 8.8
2018-Jul-14 04:51N 40°56' W 073°35'15 8.0
2018-Jul-14 03:01N 40°48' W 073°51'0 9.0
2018-Jul-14 02:58N 40°48' W 073°52'4 8.1
2018-Jul-14 02:26N 40°46' W 073°57'4 8.7
2018-Jul-14 02:00N 40°43' W 073°58'3 5.7
2018-Jul-14 01:30N 40°41' W 074°01'2 4.6
2018-Jul-14 01:01N 40°39' W 074°03'0 0.9
2018-Jul-14 00:30N 40°38' W 074°03'0 0.3
2018-Jul-14 00:00N 40°39' W 074°03'1 1.5
2018-Jul-13 23:30N 40°39' W 074°04'3 6.6
2018-Jul-13 23:00N 40°39' W 074°08'3 6.0
2018-Jul-13 22:30N 40°38' W 074°12'2 3.2
2018-Jul-13 22:00N 40°36' W 074°12'0 0.0
2018-Jul-13 18:04N 40°36' W 074°12'0 0.0
2018-Jul-13 17:48N 40°36' W 074°12'0 0.0
2018-Jul-13 11:32N 40°36' W 074°12'0 0.0
2018-Jul-13 11:04N 40°36' W 074°12'0 0.0
2018-Jul-13 10:54N 40°36' W 074°12'0 0.0
2018-Jul-13 09:56N 40°36' W 074°12'0 0.0
2018-Jul-13 09:30N 40°36' W 074°12'0 0.0
2018-Jul-13 08:58N 40°36' W 074°12'0 0.0
2018-Jul-13 07:45N 40°36' W 074°12'0 0.0
2018-Jul-13 07:30N 40°36' W 074°12'0 0.0
2018-Jul-13 07:00N 40°36' W 074°12'0 0.0
2018-Jul-13 06:30N 40°36' W 074°12'0 0.0
2018-Jul-13 06:00N 40°36' W 074°12'0 0.0
2018-Jul-13 05:30N 40°36' W 074°12'0 0.0
2018-Jul-13 04:40N 40°36' W 074°12'0 0.8
2018-Jul-13 04:30N 40°36' W 074°12'4 7.5
2018-Jul-13 04:00N 40°39' W 074°08'0 0.9
2018-Jul-13 03:30N 40°38' W 074°08'2 3.4
2018-Jul-13 02:59N 40°39' W 074°05'0 0.0
2018-Jul-13 02:30N 40°39' W 074°05'0 0.0
2018-Jul-13 02:00N 40°39' W 074°05'0 0.0
2018-Jul-13 01:30N 40°39' W 074°05'0 0.0
2018-Jul-13 01:00N 40°39' W 074°05'0 0.0
2018-Jul-13 00:30N 40°39' W 074°05'0 0.0
2018-Jul-13 00:00N 40°39' W 074°05'0 0.0
2018-Jul-12 23:30N 40°39' W 074°05'0 0.0
2018-Jul-12 23:00N 40°39' W 074°05'2 3.7
2018-Jul-12 22:31N 40°38' W 074°08'2 3.0
2018-Jul-12 21:59N 40°39' W 074°10'3 6.6
2018-Jul-12 21:30N 40°36' W 074°12'0 0.2
2018-Jul-12 21:00N 40°36' W 074°12'2 3.2
2018-Jul-12 20:28N 40°38' W 074°12'4 9.7
2018-Jul-12 20:00N 40°39' W 074°06'3 5.6
2018-Jul-12 19:30N 40°39' W 074°03'0 0.0
2018-Jul-12 19:00N 40°39' W 074°03'0 0.0
2018-Jul-12 18:30N 40°39' W 074°03'0 0.0
2018-Jul-12 18:00N 40°39' W 074°03'0 0.0
2018-Jul-12 17:30N 40°39' W 074°03'0 0.0
2018-Jul-12 17:00N 40°39' W 074°03'0 0.0
2018-Jul-12 16:30N 40°39' W 074°03'0 0.0
2018-Jul-12 16:00N 40°39' W 074°03'0 0.0
2018-Jul-12 15:30N 40°39' W 074°03'0 0.1
2018-Jul-12 15:00N 40°39' W 074°03'0 0.3
2018-Jul-12 14:30N 40°39' W 074°03'0 0.0
2018-Jul-12 14:00N 40°39' W 074°03'0 0.3
2018-Jul-12 13:30N 40°39' W 074°03'4 7.3
2018-Jul-12 13:00N 40°42' W 073°60'4 7.4
2018-Jul-12 12:30N 40°46' W 073°57'48 9.2
2018-Jul-12 07:20N 41°03' W 072°59'7 9.5
2018-Jul-12 06:36N 41°05' W 072°50'1 9.6
2018-Jul-12 06:30N 41°05' W 072°49'5 9.6
2018-Jul-12 06:00N 41°06' W 072°42'4 9.1
2018-Jul-12 05:30N 41°08' W 072°37'4 8.6
2018-Jul-12 05:00N 41°09' W 072°31'5 8.9
2018-Jul-12 04:30N 41°10' W 072°25'4 8.7
2018-Jul-12 04:00N 41°12' W 072°20'5 9.1
2018-Jul-12 03:28N 41°13' W 072°14'87 9.5
2018-Jul-11 18:23N 41°49' W 070°28'510.0
2018-Jul-11 17:52N 41°54' W 070°29'510.3
2018-Jul-11 17:23N 41°59' W 070°30'410.4
2018-Jul-11 17:00N 42°03' W 070°30'510.5
2018-Jul-11 16:30N 42°08' W 070°31'510.8
2018-Jul-11 16:00N 42°13' W 070°31'510.8
2018-Jul-11 15:30N 42°19' W 070°29'510.7
2018-Jul-11 15:00N 42°24' W 070°28'510.7
2018-Jul-11 14:30N 42°29' W 070°27'510.7
2018-Jul-11 14:00N 42°35' W 070°26'510.7
2018-Jul-11 13:30N 42°40' W 070°25'510.8
2018-Jul-11 13:00N 42°45' W 070°23'510.8
2018-Jul-11 12:30N 42°50' W 070°22'510.5
2018-Jul-11 12:00N 42°56' W 070°21'10 0.6
2018-Jul-10 19:35N 43°05' W 070°17'110.5
2018-Jul-10 19:29N 43°04' W 070°18'510.5
2018-Jul-10 19:00N 42°59' W 070°20'510.5
2018-Jul-10 18:30N 42°54' W 070°23'510.3
2018-Jul-10 18:00N 42°50' W 070°25'510.2
2018-Jul-10 17:30N 42°45' W 070°28'510.1
2018-Jul-10 17:00N 42°40' W 070°30'5 9.9
2018-Jul-10 16:30N 42°35' W 070°31'510.1
2018-Jul-10 16:00N 42°30' W 070°31'3210.2
2018-Jul-10 12:55N 41°58' W 070°29'1110.1
2018-Jul-10 11:46N 41°47' W 070°29'40 7.0
2018-Jul-10 05:59N 41°33' W 071°20'5 9.9
2018-Jul-10 05:30N 41°37' W 071°17'5 8.3
2018-Jul-10 04:55N 41°40' W 071°12'  
Track history (hours):
 
Tides and Currents Weather Stations Pressure Air Temp Water Temp Dewpoint Dewpoint Depression Visibility Wind Speed Wind Dir Waves Ship Positions

Austin Reinauer

Owner: REINAUER TRANSPORTATION CO. LLC, STATEN ISLAND, NY. More information available from US FCC via Universal Licensing System and Coast Guard Vessel Documentation Center.

Last reported at 2018-Jul-19 13:00 UTC. Time now 2018-Jul-19 13:21 UTC.
Position N 40°44' W 073°58'.

Length 33 m; draft 6 m.

Type: . MMSI: 366739920.

Date/timePositionNaut miles runAvg speedWind from/ knotsBaromVisibWave heightAir tempDewpointWater temp
2018-Jul-19 13:00N 40°44' W 073°58'3 5.6
2018-Jul-19 12:30N 40°42' W 074°00'2 4.2
2018-Jul-19 12:00N 40°40' W 074°02'2 4.8
2018-Jul-19 11:30N 40°39' W 074°05'2 4.7
2018-Jul-19 11:00N 40°38' W 074°08'0 0.0
2018-Jul-19 10:30N 40°38' W 074°08'2 3.8
2018-Jul-19 10:00N 40°39' W 074°05'3 5.7
2018-Jul-19 09:30N 40°40' W 074°02'2 3.6
2018-Jul-19 09:00N 40°39' W 074°03'4 7.7
2018-Jul-19 08:30N 40°35' W 074°02'4 7.6
2018-Jul-19 08:00N 40°31' W 074°00'34 8.1
2018-Jul-19 03:48N 39°58' W 073°56'3 9.3
2018-Jul-19 03:29N 39°55' W 073°56'5 9.5
2018-Jul-19 03:00N 39°50' W 073°57'5 9.5
2018-Jul-19 02:30N 39°46' W 073°58'5 9.3
2018-Jul-19 02:00N 39°41' W 074°01'5 9.2
2018-Jul-19 01:30N 39°37' W 074°03'66 8.3
2018-Jul-18 17:36N 38°48' W 075°00'2 6.7
2018-Jul-18 17:20N 38°49' W 075°02'4 7.8
2018-Jul-18 16:51N 38°53' W 075°04'3 7.2
2018-Jul-18 16:27N 38°55' W 075°05'3 6.8
2018-Jul-18 15:59N 38°58' W 075°07'3 7.1
2018-Jul-18 15:30N 39°01' W 075°09'4 7.5
2018-Jul-18 15:00N 39°05' W 075°11'4 8.0
2018-Jul-18 14:31N 39°08' W 075°14'9 9.3
2018-Jul-18 13:30N 39°16' W 075°20'611.1
2018-Jul-18 13:00N 39°20' W 075°25'611.1
2018-Jul-18 12:31N 39°24' W 075°30'510.6
2018-Jul-18 12:00N 39°28' W 075°34'510.5
2018-Jul-18 11:30N 39°33' W 075°33'8 8.4
2018-Jul-18 10:30N 39°42' W 075°31'4 8.6
2018-Jul-18 10:00N 39°46' W 075°29'4 7.6
2018-Jul-18 09:30N 39°48' W 075°25'4 7.1
2018-Jul-18 09:00N 39°50' W 075°21'3 6.4
2018-Jul-18 08:31N 39°51' W 075°17'3 6.5
2018-Jul-18 08:00N 39°52' W 075°13'3 6.0
2018-Jul-18 07:30N 39°53' W 075°10'0 0.0
2018-Jul-18 06:59N 39°53' W 075°10'0 0.0
2018-Jul-18 06:29N 39°53' W 075°10'0 0.0
2018-Jul-18 05:59N 39°53' W 075°10'0 0.0
2018-Jul-18 05:29N 39°53' W 075°10'0 0.0
2018-Jul-18 05:00N 39°53' W 075°10'0 0.0
2018-Jul-18 04:31N 39°53' W 075°10'0 0.0
2018-Jul-18 04:00N 39°53' W 075°10'0 0.0
2018-Jul-18 03:30N 39°53' W 075°10'0 0.0
2018-Jul-18 03:00N 39°53' W 075°10'0 0.0
2018-Jul-18 02:31N 39°53' W 075°10'0 0.0
2018-Jul-18 02:00N 39°53' W 075°10'0 0.0
2018-Jul-18 01:30N 39°53' W 075°10'0 0.0
2018-Jul-18 01:00N 39°53' W 075°10'0 0.0
2018-Jul-18 00:31N 39°53' W 075°10'0 0.0
2018-Jul-18 00:00N 39°53' W 075°10'0 0.0
2018-Jul-17 23:30N 39°53' W 075°10'0 0.0
2018-Jul-17 23:00N 39°53' W 075°10'0 0.0
2018-Jul-17 22:30N 39°53' W 075°10'0 0.0
2018-Jul-17 22:00N 39°53' W 075°10'0 0.0
2018-Jul-17 21:30N 39°53' W 075°10'0 0.0
2018-Jul-17 21:00N 39°53' W 075°10'0 0.0
2018-Jul-17 20:30N 39°53' W 075°10'0 0.0
2018-Jul-17 20:00N 39°53' W 075°10'0 0.0
2018-Jul-17 19:30N 39°53' W 075°10'0 0.0
2018-Jul-17 19:00N 39°53' W 075°10'0 0.0
2018-Jul-17 18:30N 39°53' W 075°10'0 0.0
2018-Jul-17 18:00N 39°53' W 075°10'0 0.0
2018-Jul-17 17:30N 39°53' W 075°10'0 0.0
2018-Jul-17 17:00N 39°53' W 075°10'0 0.0
2018-Jul-17 16:30N 39°53' W 075°10'0 0.0
2018-Jul-17 16:00N 39°53' W 075°10'0 0.0
2018-Jul-17 15:30N 39°53' W 075°10'0 0.0
2018-Jul-17 15:00N 39°53' W 075°10'0 0.0
2018-Jul-17 14:30N 39°53' W 075°10'0 0.0
2018-Jul-17 14:00N 39°53' W 075°10'0 0.0
2018-Jul-17 13:29N 39°53' W 075°10'0 0.0
2018-Jul-17 13:00N 39°53' W 075°10'0 0.0
2018-Jul-17 12:30N 39°53' W 075°10'0 0.0
2018-Jul-17 12:00N 39°53' W 075°10'0 0.0
2018-Jul-17 11:30N 39°53' W 075°10'0 0.0
2018-Jul-17 11:00N 39°53' W 075°10'0 0.0
2018-Jul-17 10:30N 39°53' W 075°10'0 0.0
2018-Jul-17 10:00N 39°53' W 075°10'0 0.0
2018-Jul-17 09:30N 39°53' W 075°10'0 0.0
2018-Jul-17 09:00N 39°53' W 075°10'0 0.0
2018-Jul-17 08:30N 39°53' W 075°10'0 0.0
2018-Jul-17 08:00N 39°53' W 075°10'0 0.0
2018-Jul-17 07:30N 39°53' W 075°10'0 0.8
2018-Jul-17 07:00N 39°53' W 075°10'2 4.0
2018-Jul-17 06:30N 39°52' W 075°12'0 0.0
2018-Jul-17 06:00N 39°52' W 075°12'0 0.0
2018-Jul-17 05:30N 39°52' W 075°12'1 1.3
2018-Jul-17 05:00N 39°53' W 075°12'0 0.8
2018-Jul-17 04:30N 39°53' W 075°11'5 9.2
2018-Jul-17 04:00N 39°51' W 075°17'4 8.2
2018-Jul-17 03:30N 39°50' W 075°22'4 8.7
2018-Jul-17 03:00N 39°47' W 075°27'4 8.6
2018-Jul-17 02:30N 39°44' W 075°30'4 8.3
2018-Jul-17 02:00N 39°40' W 075°32'4 7.9
2018-Jul-17 01:30N 39°37' W 075°35'4 8.2
2018-Jul-17 01:00N 39°33' W 075°32'4 7.8
2018-Jul-17 00:30N 39°29' W 075°34'7 7.3
2018-Jul-16 23:30N 39°23' W 075°29'4 7.6
2018-Jul-16 23:00N 39°20' W 075°25'4 7.8
2018-Jul-16 22:30N 39°17' W 075°22'4 8.1
2018-Jul-16 22:00N 39°14' W 075°19'4 8.0
2018-Jul-16 21:30N 39°11' W 075°16'4 8.5
2018-Jul-16 21:00N 39°07' W 075°13'25 5.8
2018-Jul-16 16:38N 38°58' W 074°43'3 9.9
2018-Jul-16 16:17N 39°00' W 074°40'4 9.8
2018-Jul-16 15:50N 39°03' W 074°36'11 9.8
2018-Jul-16 14:45N 39°11' W 074°26'7 9.8
2018-Jul-16 14:05N 39°16' W 074°21'1 9.8
2018-Jul-16 13:58N 39°17' W 074°20'5 9.8
2018-Jul-16 13:30N 39°20' W 074°16'5 9.6
2018-Jul-16 13:00N 39°24' W 074°12'5 9.7
2018-Jul-16 12:30N 39°28' W 074°09'5 9.7
2018-Jul-16 12:00N 39°33' W 074°06'5 9.8
2018-Jul-16 11:30N 39°37' W 074°03'5 9.8
2018-Jul-16 11:00N 39°41' W 074°01'5 9.6
2018-Jul-16 10:31N 39°46' W 073°58'5 9.3
2018-Jul-16 10:00N 39°50' W 073°57'5 9.8
2018-Jul-16 09:30N 39°55' W 073°57'6 9.7
2018-Jul-16 08:55N 40°01' W 073°56'5 9.8
2018-Jul-16 08:25N 40°06' W 073°55'5 9.9
2018-Jul-16 07:57N 40°10' W 073°55'1910.1
2018-Jul-16 06:06N 40°29' W 073°54'212.2
2018-Jul-16 05:56N 40°30' W 073°57'511.4
2018-Jul-16 05:30N 40°33' W 074°02'510.7
2018-Jul-16 05:00N 40°38' W 074°03'5 9.1
2018-Jul-16 04:30N 40°42' W 074°00'4 7.7
2018-Jul-16 04:00N 40°45' W 073°57'57 1.3
2018-Jul-14 09:07N 41°16' W 072°55'1 7.5
2018-Jul-14 08:59N 41°15' W 072°55'6 7.0
2018-Jul-14 08:10N 41°10' W 072°58'2 9.5
2018-Jul-14 07:56N 41°09' W 073°00'4 9.7
2018-Jul-14 07:30N 41°06' W 073°04'5 9.9
2018-Jul-14 07:00N 41°04' W 073°10'5 9.7
2018-Jul-14 06:30N 41°02' W 073°16'13 9.3
2018-Jul-14 05:09N 40°57' W 073°32'3 8.8
2018-Jul-14 04:51N 40°56' W 073°35'15 8.0
2018-Jul-14 03:01N 40°48' W 073°51'0 9.0
2018-Jul-14 02:58N 40°48' W 073°52'4 8.1
2018-Jul-14 02:26N 40°46' W 073°57'4 8.7
2018-Jul-14 02:00N 40°43' W 073°58'3 5.7
2018-Jul-14 01:30N 40°41' W 074°01'2 4.6
2018-Jul-14 01:01N 40°39' W 074°03'0 0.9
2018-Jul-14 00:30N 40°38' W 074°03'0 0.3
2018-Jul-14 00:00N 40°39' W 074°03'1 1.5
2018-Jul-13 23:30N 40°39' W 074°04'3 6.6
2018-Jul-13 23:00N 40°39' W 074°08'3 6.0
2018-Jul-13 22:30N 40°38' W 074°12'2 3.2
2018-Jul-13 22:00N 40°36' W 074°12'0 0.0
2018-Jul-13 18:04N 40°36' W 074°12'0 0.0
2018-Jul-13 17:48N 40°36' W 074°12'0 0.0
2018-Jul-13 11:32N 40°36' W 074°12'0 0.0
2018-Jul-13 11:04N 40°36' W 074°12'0 0.0
2018-Jul-13 10:54N 40°36' W 074°12'0 0.0
2018-Jul-13 09:56N 40°36' W 074°12'0 0.0
2018-Jul-13 09:30N 40°36' W 074°12'0 0.0
2018-Jul-13 08:58N 40°36' W 074°12'0 0.0
2018-Jul-13 07:45N 40°36' W 074°12'0 0.0
2018-Jul-13 07:30N 40°36' W 074°12'0 0.0
2018-Jul-13 07:00N 40°36' W 074°12'0 0.0
2018-Jul-13 06:30N 40°36' W 074°12'0 0.0
2018-Jul-13 06:00N 40°36' W 074°12'0 0.0
2018-Jul-13 05:30N 40°36' W 074°12'0 0.0
2018-Jul-13 04:40N 40°36' W 074°12'0 0.8
2018-Jul-13 04:30N 40°36' W 074°12'4 7.5
2018-Jul-13 04:00N 40°39' W 074°08'0 0.9
2018-Jul-13 03:30N 40°38' W 074°08'2 3.4
2018-Jul-13 02:59N 40°39' W 074°05'0 0.0
2018-Jul-13 02:30N 40°39' W 074°05'0 0.0
2018-Jul-13 02:00N 40°39' W 074°05'0 0.0
2018-Jul-13 01:30N 40°39' W 074°05'0 0.0
2018-Jul-13 01:00N 40°39' W 074°05'0 0.0
2018-Jul-13 00:30N 40°39' W 074°05'0 0.0
2018-Jul-13 00:00N 40°39' W 074°05'0 0.0
2018-Jul-12 23:30N 40°39' W 074°05'0 0.0
2018-Jul-12 23:00N 40°39' W 074°05'2 3.7
2018-Jul-12 22:31N 40°38' W 074°08'2 3.0
2018-Jul-12 21:59N 40°39' W 074°10'3 6.6
2018-Jul-12 21:30N 40°36' W 074°12'0 0.2
2018-Jul-12 21:00N 40°36' W 074°12'2 3.2
2018-Jul-12 20:28N 40°38' W 074°12'4 9.7
2018-Jul-12 20:00N 40°39' W 074°06'3 5.6
2018-Jul-12 19:30N 40°39' W 074°03'0 0.0
2018-Jul-12 19:00N 40°39' W 074°03'0 0.0
2018-Jul-12 18:30N 40°39' W 074°03'0 0.0
2018-Jul-12 18:00N 40°39' W 074°03'0 0.0
2018-Jul-12 17:30N 40°39' W 074°03'0 0.0
2018-Jul-12 17:00N 40°39' W 074°03'0 0.0
2018-Jul-12 16:30N 40°39' W 074°03'0 0.0
2018-Jul-12 16:00N 40°39' W 074°03'0 0.0
2018-Jul-12 15:30N 40°39' W 074°03'0 0.1
2018-Jul-12 15:00N 40°39' W 074°03'0 0.3
2018-Jul-12 14:30N 40°39' W 074°03'0 0.0
2018-Jul-12 14:00N 40°39' W 074°03'0 0.3
2018-Jul-12 13:30N 40°39' W 074°03'4 7.3
2018-Jul-12 13:00N 40°42' W 073°60'4 7.4
2018-Jul-12 12:30N 40°46' W 073°57'48 9.2
2018-Jul-12 07:20N 41°03' W 072°59'7 9.5
2018-Jul-12 06:36N 41°05' W 072°50'1 9.6
2018-Jul-12 06:30N 41°05' W 072°49'5 9.6
2018-Jul-12 06:00N 41°06' W 072°42'4 9.1
2018-Jul-12 05:30N 41°08' W 072°37'4 8.6
2018-Jul-12 05:00N 41°09' W 072°31'5 8.9
2018-Jul-12 04:30N 41°10' W 072°25'4 8.7
2018-Jul-12 04:00N 41°12' W 072°20'5 9.1
2018-Jul-12 03:28N 41°13' W 072°14'87 9.5
2018-Jul-11 18:23N 41°49' W 070°28'510.0
2018-Jul-11 17:52N 41°54' W 070°29'510.3
2018-Jul-11 17:23N 41°59' W 070°30'410.4
2018-Jul-11 17:00N 42°03' W 070°30'510.5
2018-Jul-11 16:30N 42°08' W 070°31'510.8
2018-Jul-11 16:00N 42°13' W 070°31'510.8
2018-Jul-11 15:30N 42°19' W 070°29'510.7
2018-Jul-11 15:00N 42°24' W 070°28'510.7
2018-Jul-11 14:30N 42°29' W 070°27'510.7
2018-Jul-11 14:00N 42°35' W 070°26'510.7
2018-Jul-11 13:30N 42°40' W 070°25'510.8
2018-Jul-11 13:00N 42°45' W 070°23'510.8
2018-Jul-11 12:30N 42°50' W 070°22'510.5
2018-Jul-11 12:00N 42°56' W 070°21'10 0.6
2018-Jul-10 19:35N 43°05' W 070°17'110.5
2018-Jul-10 19:29N 43°04' W 070°18'510.5
2018-Jul-10 19:00N 42°59' W 070°20'510.5
2018-Jul-10 18:30N 42°54' W 070°23'510.3
2018-Jul-10 18:00N 42°50' W 070°25'510.2
2018-Jul-10 17:30N 42°45' W 070°28'510.1
2018-Jul-10 17:00N 42°40' W 070°30'5 9.9
2018-Jul-10 16:30N 42°35' W 070°31'510.1
2018-Jul-10 16:00N 42°30' W 070°31'3210.2
2018-Jul-10 12:55N 41°58' W 070°29'1110.1
2018-Jul-10 11:46N 41°47' W 070°29'40 7.0
2018-Jul-10 05:59N 41°33' W 071°20'5 9.9
2018-Jul-10 05:30N 41°37' W 071°17'5 8.3
2018-Jul-10 04:55N 41°40' W 071°12'  

Dump ship's entire track history